createdAt,value
2022-11-03T00:00:51.665Z,24.27
2022-11-03T00:01:51.664Z,24.27
2022-11-03T00:02:51.643Z,24.24
2022-11-03T00:03:51.604Z,24.25
2022-11-03T00:04:51.770Z,24.24
2022-11-03T00:05:51.554Z,24.27
2022-11-03T00:06:51.854Z,24.21
2022-11-03T00:07:51.533Z,24.21
2022-11-03T00:08:51.540Z,24.24
2022-11-03T00:09:51.499Z,24.21
2022-11-03T00:10:51.529Z,24.21
2022-11-03T00:11:51.471Z,24.20
2022-11-03T00:12:51.470Z,24.20
2022-11-03T00:13:51.765Z,24.21
2022-11-03T00:14:51.434Z,24.20
2022-11-03T00:15:51.419Z,24.18
2022-11-03T00:16:51.434Z,24.20
2022-11-03T00:17:52.060Z,24.15
2022-11-03T00:18:51.380Z,24.18
2022-11-03T00:19:51.679Z,24.16
2022-11-03T00:20:51.361Z,24.13
2022-11-03T00:21:51.328Z,24.12
2022-11-03T00:22:51.365Z,24.12
2022-11-03T00:23:51.321Z,24.13
2022-11-03T00:24:51.316Z,24.15
2022-11-03T00:25:51.285Z,24.12
2022-11-03T00:26:51.303Z,24.12
2022-11-03T00:27:51.281Z,24.13
2022-11-03T00:28:51.292Z,24.10
2022-11-03T00:29:51.320Z,24.10
2022-11-03T00:30:51.208Z,24.09
2022-11-03T00:31:51.271Z,24.09
2022-11-03T00:32:51.214Z,24.06
2022-11-03T00:33:51.167Z,24.05
2022-11-03T00:34:51.191Z,24.06
2022-11-03T00:35:51.160Z,24.06
2022-11-03T00:36:51.120Z,24.03
2022-11-03T00:37:51.112Z,24.05
2022-11-03T00:38:51.219Z,24.05
2022-11-03T00:39:51.092Z,24.05
2022-11-03T00:40:51.113Z,24.03
2022-11-03T00:41:51.059Z,24.02
2022-11-03T00:42:51.039Z,24.05
2022-11-03T00:43:51.038Z,24.03
2022-11-03T00:44:51.019Z,24.00
2022-11-03T00:45:50.998Z,24.00
2022-11-03T00:46:51.024Z,24.00
2022-11-03T00:47:50.998Z,23.97
2022-11-03T00:48:50.956Z,23.98
2022-11-03T00:49:50.934Z,23.98
2022-11-03T00:50:50.946Z,24.00
2022-11-03T00:51:50.927Z,23.95
2022-11-03T00:52:50.927Z,23.97
2022-11-03T00:53:50.877Z,23.97
2022-11-03T00:54:54.339Z,23.95
2022-11-03T00:55:50.850Z,23.95
2022-11-03T00:56:50.849Z,23.95
2022-11-03T00:57:50.861Z,23.94
2022-11-03T00:58:51.050Z,23.94
2022-11-03T00:59:50.799Z,23.94
2022-11-03T01:00:50.860Z,23.93
2022-11-03T01:01:50.846Z,23.94
2022-11-03T01:02:50.765Z,23.94
2022-11-03T01:03:50.734Z,23.90
2022-11-03T01:04:50.779Z,23.93
2022-11-03T01:05:50.725Z,23.93
2022-11-03T01:06:50.793Z,23.93
2022-11-03T01:07:50.724Z,23.91
2022-11-03T01:08:50.679Z,23.91
2022-11-03T01:09:50.661Z,23.94
2022-11-03T01:10:50.715Z,23.90
2022-11-03T01:11:50.643Z,23.90
2022-11-03T01:12:50.627Z,23.88
2022-11-03T01:13:50.599Z,23.88
2022-11-03T01:14:50.592Z,23.88
2022-11-03T01:15:50.581Z,23.85
2022-11-03T01:16:50.608Z,23.88
2022-11-03T01:17:50.542Z,23.85
2022-11-03T01:18:50.531Z,23.90
2022-11-03T01:19:50.528Z,23.87
2022-11-03T01:20:50.523Z,23.85
2022-11-03T01:21:50.495Z,23.84
2022-11-03T01:22:50.513Z,23.84
2022-11-03T01:23:50.462Z,23.84
2022-11-03T01:24:50.459Z,23.84
2022-11-03T01:25:50.441Z,23.83
2022-11-03T01:26:50.466Z,23.84
2022-11-03T01:27:50.466Z,23.80
2022-11-03T01:28:50.435Z,23.83
2022-11-03T01:29:50.395Z,23.80
2022-11-03T01:30:50.368Z,23.83
2022-11-03T01:31:50.346Z,23.79
2022-11-03T01:32:50.347Z,23.80
2022-11-03T01:33:50.336Z,23.79
2022-11-03T01:34:50.357Z,23.80
2022-11-03T01:35:50.307Z,23.80
2022-11-03T01:36:50.308Z,23.80
2022-11-03T01:37:50.265Z,23.80
2022-11-03T01:38:50.258Z,23.80
2022-11-03T01:39:50.250Z,23.78
2022-11-03T01:40:50.279Z,23.79
2022-11-03T01:41:50.207Z,23.76
2022-11-03T01:42:50.216Z,23.76
2022-11-03T01:43:50.188Z,23.78
2022-11-03T01:44:50.177Z,23.78
2022-11-03T01:45:50.154Z,23.76
2022-11-03T01:46:50.201Z,23.76
2022-11-03T01:47:50.168Z,23.75
2022-11-03T01:48:50.118Z,23.75
2022-11-03T01:49:50.101Z,23.76
2022-11-03T01:50:50.102Z,23.73
2022-11-03T01:51:50.063Z,23.76
2022-11-03T01:52:50.102Z,23.75
2022-11-03T01:53:50.041Z,23.72
2022-11-03T01:54:50.046Z,23.72
2022-11-03T01:55:50.028Z,23.75
2022-11-03T01:56:50.024Z,23.72
2022-11-03T01:57:50.137Z,23.73
2022-11-03T01:58:50.008Z,23.69
2022-11-03T01:59:49.979Z,23.72
2022-11-03T02:00:50.017Z,23.72
2022-11-03T02:01:50.009Z,23.69
2022-11-03T02:02:49.929Z,23.73
2022-11-03T02:03:49.898Z,23.70
2022-11-03T02:04:49.932Z,23.69
2022-11-03T02:05:49.882Z,23.68
2022-11-03T02:06:49.887Z,23.69
2022-11-03T02:07:49.846Z,23.68
2022-11-03T02:08:49.828Z,23.65
2022-11-03T02:09:50.064Z,23.66
2022-11-03T02:10:50.398Z,23.68
2022-11-03T02:11:50.230Z,23.66
2022-11-03T02:12:50.727Z,23.66
2022-11-03T02:13:49.809Z,23.65
2022-11-03T02:14:49.759Z,23.65
2022-11-03T02:15:50.869Z,23.65
2022-11-03T02:16:50.085Z,23.66
2022-11-03T02:17:49.726Z,23.65
2022-11-03T02:18:49.944Z,23.65
2022-11-03T02:19:49.686Z,23.65
2022-11-03T02:20:49.666Z,23.65
2022-11-03T02:21:49.658Z,23.63
2022-11-03T02:22:49.666Z,23.61
2022-11-03T02:23:49.626Z,23.61
2022-11-03T02:24:52.985Z,23.61
2022-11-03T02:25:49.619Z,23.65
2022-11-03T02:26:49.584Z,23.61
2022-11-03T02:27:49.570Z,23.60
2022-11-03T02:28:49.583Z,23.60
2022-11-03T02:29:49.548Z,23.61
2022-11-03T02:30:49.527Z,23.60
2022-11-03T02:31:49.517Z,23.60
2022-11-03T02:32:49.500Z,23.60
2022-11-03T02:33:49.499Z,23.60
2022-11-03T02:34:49.531Z,23.57
2022-11-03T02:35:49.465Z,23.58
2022-11-03T02:36:49.456Z,23.60
2022-11-03T02:37:49.432Z,23.58
2022-11-03T02:38:49.420Z,23.55
2022-11-03T02:39:49.392Z,23.58
2022-11-03T02:40:49.440Z,23.60
2022-11-03T02:41:49.374Z,23.57
2022-11-03T02:42:49.359Z,23.58
2022-11-03T02:43:49.350Z,23.57
2022-11-03T02:44:49.332Z,23.55
2022-11-03T02:45:49.317Z,23.57
2022-11-03T02:46:49.346Z,23.55
2022-11-03T02:47:49.307Z,23.55
2022-11-03T02:48:49.283Z,23.55
2022-11-03T02:49:49.334Z,23.54
2022-11-03T02:50:49.276Z,23.54
2022-11-03T02:51:49.230Z,23.54
2022-11-03T02:52:49.283Z,23.54
2022-11-03T02:53:49.211Z,23.53
2022-11-03T02:54:49.200Z,23.54
2022-11-03T02:55:49.192Z,23.51
2022-11-03T02:56:49.166Z,23.54
2022-11-03T02:57:49.153Z,23.50
2022-11-03T02:58:49.362Z,23.50
2022-11-03T02:59:49.128Z,23.51
2022-11-03T03:00:49.207Z,23.51
2022-11-03T03:01:49.261Z,23.48
2022-11-03T03:02:49.096Z,23.47
2022-11-03T03:03:49.075Z,23.47
2022-11-03T03:04:49.094Z,23.48
2022-11-03T03:05:49.040Z,23.47
2022-11-03T03:06:49.080Z,23.50
2022-11-03T03:07:49.013Z,23.48
2022-11-03T03:08:48.996Z,23.46
2022-11-03T03:09:48.982Z,23.47
2022-11-03T03:10:49.022Z,23.47
2022-11-03T03:11:48.961Z,23.47
2022-11-03T03:12:48.942Z,23.46
2022-11-03T03:13:48.943Z,23.47
2022-11-03T03:14:48.924Z,23.43
2022-11-03T03:15:48.899Z,23.48
2022-11-03T03:16:48.935Z,23.43
2022-11-03T03:17:48.882Z,23.46
2022-11-03T03:18:48.865Z,23.43
2022-11-03T03:19:48.872Z,23.42
2022-11-03T03:20:48.815Z,23.46
2022-11-03T03:21:48.821Z,23.46
2022-11-03T03:22:48.983Z,23.46
2022-11-03T03:23:48.788Z,23.39
2022-11-03T03:24:48.773Z,23.42
2022-11-03T03:25:48.765Z,23.42
2022-11-03T03:26:48.743Z,23.39
2022-11-03T03:27:48.843Z,23.43
2022-11-03T03:28:48.764Z,23.43
2022-11-03T03:29:48.713Z,23.40
2022-11-03T03:30:48.760Z,23.39
2022-11-03T03:31:48.705Z,23.42
2022-11-03T03:32:48.714Z,23.40
2022-11-03T03:33:48.760Z,23.39
2022-11-03T03:34:48.751Z,23.40
2022-11-03T03:35:49.420Z,23.36
2022-11-03T03:36:48.728Z,23.38
2022-11-03T03:37:48.775Z,23.38
2022-11-03T03:38:49.431Z,23.36
2022-11-03T03:39:49.136Z,23.38
2022-11-03T03:40:48.801Z,23.38
2022-11-03T03:41:48.772Z,23.40
2022-11-03T03:42:48.803Z,23.38
2022-11-03T03:43:48.513Z,23.36
2022-11-03T03:44:48.487Z,23.35
2022-11-03T03:45:48.502Z,23.38
2022-11-03T03:46:48.626Z,23.38
2022-11-03T03:47:48.632Z,23.36
2022-11-03T03:48:48.492Z,23.36
2022-11-03T03:49:48.487Z,23.36
2022-11-03T03:50:48.494Z,23.35
2022-11-03T03:51:49.199Z,23.35
2022-11-03T03:52:49.033Z,23.36
2022-11-03T03:53:49.120Z,23.33
2022-11-03T03:54:48.553Z,23.35
2022-11-03T03:55:49.216Z,23.35
2022-11-03T03:56:48.346Z,23.33
2022-11-03T03:57:48.487Z,23.32
2022-11-03T03:58:48.783Z,23.33
2022-11-03T03:59:48.535Z,23.33
2022-11-03T04:00:49.239Z,23.33
2022-11-03T04:01:48.470Z,23.33
2022-11-03T04:02:48.487Z,23.31
2022-11-03T04:03:48.418Z,23.31
2022-11-03T04:04:48.525Z,23.33
2022-11-03T04:05:49.087Z,23.32
2022-11-03T04:06:48.726Z,23.32
2022-11-03T04:07:48.483Z,23.31
2022-11-03T04:08:48.337Z,23.33
2022-11-03T04:09:48.321Z,23.28
2022-11-03T04:10:48.397Z,23.28
2022-11-03T04:11:48.131Z,23.31
2022-11-03T04:12:48.140Z,23.27
2022-11-03T04:13:48.176Z,23.27
2022-11-03T04:14:48.088Z,23.27
2022-11-03T04:15:48.065Z,23.31
2022-11-03T04:16:48.085Z,23.31
2022-11-03T04:18:48.053Z,23.31
2022-11-03T04:19:48.042Z,23.27
2022-11-03T04:20:47.993Z,23.28
2022-11-03T04:21:47.985Z,23.25
2022-11-03T04:22:48.029Z,23.25
2022-11-03T04:23:47.964Z,23.27
2022-11-03T04:24:47.940Z,23.27
2022-11-03T04:25:47.924Z,23.27
2022-11-03T04:26:47.913Z,23.27
2022-11-03T04:27:47.899Z,23.25
2022-11-03T04:28:48.159Z,23.27
2022-11-03T04:29:47.870Z,23.25
2022-11-03T04:30:47.857Z,23.23
2022-11-03T04:31:47.862Z,23.23
2022-11-03T04:32:47.833Z,23.23
2022-11-03T04:33:47.812Z,23.25
2022-11-03T04:34:47.835Z,23.25
2022-11-03T04:35:47.791Z,23.25
2022-11-03T04:36:47.771Z,23.23
2022-11-03T04:37:48.179Z,23.23
2022-11-03T04:38:47.758Z,23.23
2022-11-03T04:39:47.741Z,23.22
2022-11-03T04:40:49.174Z,23.23
2022-11-03T04:41:47.704Z,23.23
2022-11-03T04:42:47.693Z,23.22
2022-11-03T04:43:47.677Z,23.20
2022-11-03T04:44:47.660Z,23.23
2022-11-03T04:45:47.643Z,23.22
2022-11-03T04:46:47.680Z,23.22
2022-11-03T04:47:47.629Z,23.22
2022-11-03T04:48:47.614Z,23.20
2022-11-03T04:49:47.589Z,23.20
2022-11-03T04:50:47.574Z,23.20
2022-11-03T04:51:47.571Z,23.22
2022-11-03T04:52:47.574Z,23.19
2022-11-03T04:53:47.543Z,23.20
2022-11-03T04:54:47.525Z,23.19
2022-11-03T04:55:47.508Z,23.20
2022-11-03T04:56:47.528Z,23.20
2022-11-03T04:57:47.485Z,23.20
2022-11-03T04:58:47.496Z,23.20
2022-11-03T04:59:47.606Z,23.22
2022-11-03T05:00:47.464Z,23.20
2022-11-03T05:01:47.656Z,23.17
2022-11-03T05:02:49.144Z,23.20
2022-11-03T05:03:47.394Z,23.20
2022-11-03T05:04:47.411Z,23.20
2022-11-03T05:05:47.386Z,23.19
2022-11-03T05:06:47.352Z,23.20
2022-11-03T05:07:47.340Z,23.17
2022-11-03T05:08:47.324Z,23.20
2022-11-03T05:09:47.315Z,23.17
2022-11-03T05:10:47.325Z,23.17
2022-11-03T05:11:47.304Z,23.17
2022-11-03T05:12:47.262Z,23.17
2022-11-03T05:13:47.252Z,23.17
2022-11-03T05:14:47.258Z,23.17
2022-11-03T05:15:47.232Z,23.15
2022-11-03T05:16:47.246Z,23.16
2022-11-03T05:17:47.226Z,23.15
2022-11-03T05:18:47.192Z,23.13
2022-11-03T05:19:47.172Z,23.16
2022-11-03T05:20:47.156Z,23.12
2022-11-03T05:21:47.146Z,23.15
2022-11-03T05:22:47.168Z,23.13
2022-11-03T05:23:47.116Z,23.13
2022-11-03T05:24:47.098Z,23.12
2022-11-03T05:25:47.087Z,23.15
2022-11-03T05:26:47.076Z,23.12
2022-11-03T05:27:47.081Z,23.12
2022-11-03T05:28:47.075Z,23.13
2022-11-03T05:29:47.032Z,23.12
2022-11-03T05:30:47.005Z,23.12
2022-11-03T05:31:47.012Z,23.10
2022-11-03T05:32:46.991Z,23.10
2022-11-03T05:33:46.996Z,23.12
2022-11-03T05:34:47.167Z,23.13
2022-11-03T05:35:46.954Z,23.15
2022-11-03T05:36:46.944Z,23.13
2022-11-03T05:37:46.932Z,23.10
2022-11-03T05:38:46.899Z,23.10
2022-11-03T05:39:46.909Z,23.12
2022-11-03T05:40:46.922Z,23.13
2022-11-03T05:41:46.860Z,23.10
2022-11-03T05:42:46.860Z,23.10
2022-11-03T05:43:46.857Z,23.12
2022-11-03T05:44:46.823Z,23.13
2022-11-03T05:45:46.812Z,23.17
2022-11-03T05:46:46.830Z,23.12
2022-11-03T05:47:46.782Z,23.17
2022-11-03T05:48:46.761Z,23.19
2022-11-03T05:49:46.780Z,23.19
2022-11-03T05:50:46.730Z,23.22
2022-11-03T05:51:46.734Z,23.22
2022-11-03T05:52:46.738Z,23.22
2022-11-03T05:53:46.705Z,23.25
2022-11-03T05:54:46.697Z,23.25
2022-11-03T05:55:46.681Z,23.28
2022-11-03T05:56:46.678Z,23.32
2022-11-03T05:57:46.645Z,23.33
2022-11-03T05:58:46.657Z,23.31
2022-11-03T05:59:46.618Z,23.35
2022-11-03T06:00:48.959Z,23.35
2022-11-03T06:01:46.645Z,23.36
2022-11-03T06:02:46.596Z,23.38
2022-11-03T06:03:46.592Z,23.38
2022-11-03T06:04:46.566Z,23.39
2022-11-03T06:05:46.540Z,23.42
2022-11-03T06:06:46.541Z,23.40
2022-11-03T06:07:46.510Z,23.42
2022-11-03T06:08:46.504Z,23.43
2022-11-03T06:09:46.495Z,23.48
2022-11-03T06:10:46.500Z,23.43
2022-11-03T06:11:46.447Z,23.48
2022-11-03T06:12:46.424Z,23.48
2022-11-03T06:13:46.445Z,23.50
2022-11-03T06:14:46.403Z,23.50
2022-11-03T06:15:46.397Z,23.53
2022-11-03T06:16:46.428Z,23.51
2022-11-03T06:17:46.376Z,23.51
2022-11-03T06:18:46.376Z,23.53
2022-11-03T06:19:46.340Z,23.54
2022-11-03T06:20:46.336Z,23.53
2022-11-03T06:21:46.324Z,23.55
2022-11-03T06:22:46.331Z,23.58
2022-11-03T06:23:46.277Z,23.54
2022-11-03T06:24:46.271Z,23.57
2022-11-03T06:25:46.260Z,23.57
2022-11-03T06:26:46.252Z,23.58
2022-11-03T06:27:46.222Z,23.61
2022-11-03T06:28:46.271Z,23.61
2022-11-03T06:29:46.235Z,23.60
2022-11-03T06:30:46.253Z,23.61
2022-11-03T06:31:46.185Z,23.60
2022-11-03T06:32:46.160Z,23.61
2022-11-03T06:33:46.179Z,23.65
2022-11-03T06:34:46.164Z,23.65
2022-11-03T06:35:46.108Z,23.63
2022-11-03T06:36:46.107Z,23.66
2022-11-03T06:37:46.097Z,23.63
2022-11-03T06:38:46.071Z,23.66
2022-11-03T06:39:46.072Z,23.65
2022-11-03T06:40:46.206Z,23.68
2022-11-03T06:41:46.033Z,23.68
2022-11-03T06:42:46.024Z,23.68
2022-11-03T06:43:46.003Z,23.69
2022-11-03T06:44:46.679Z,23.69
2022-11-03T06:45:45.967Z,23.72
2022-11-03T06:46:45.997Z,23.70
2022-11-03T06:47:45.948Z,23.69
2022-11-03T06:48:45.935Z,23.70
2022-11-03T06:49:45.935Z,23.70
2022-11-03T06:50:45.924Z,23.70
2022-11-03T06:51:45.886Z,23.69
2022-11-03T06:52:45.998Z,23.72
2022-11-03T06:53:45.860Z,23.73
2022-11-03T06:54:45.857Z,23.72
2022-11-03T06:55:45.852Z,23.75
2022-11-03T06:56:45.822Z,23.73
2022-11-03T06:57:45.820Z,23.73
2022-11-03T06:58:45.856Z,23.73
2022-11-03T06:59:45.768Z,23.75
2022-11-03T07:00:50.991Z,23.72
2022-11-03T07:01:46.853Z,23.76
2022-11-03T07:02:45.744Z,23.78
2022-11-03T07:03:45.729Z,23.78
2022-11-03T07:04:45.751Z,23.79
2022-11-03T07:05:45.688Z,23.79
2022-11-03T07:06:49.080Z,23.78
2022-11-03T07:07:46.657Z,23.78
2022-11-03T07:08:45.657Z,23.78
2022-11-03T07:09:45.646Z,23.75
2022-11-03T07:10:45.665Z,23.76
2022-11-03T07:11:45.619Z,23.76
2022-11-03T07:12:45.599Z,23.76
2022-11-03T07:13:45.602Z,23.75
2022-11-03T07:14:45.567Z,23.73
2022-11-03T07:15:45.567Z,23.79
2022-11-03T07:16:45.580Z,23.78
2022-11-03T07:17:45.535Z,23.73
2022-11-03T07:18:45.508Z,23.76
2022-11-03T07:19:45.505Z,23.76
2022-11-03T07:20:45.598Z,23.73
2022-11-03T07:21:45.489Z,23.73
2022-11-03T07:22:45.524Z,23.75
2022-11-03T07:23:47.213Z,23.72
2022-11-03T07:24:45.433Z,23.76
2022-11-03T07:25:45.410Z,23.75
2022-11-03T07:26:45.425Z,23.73
2022-11-03T07:27:45.385Z,23.72
2022-11-03T07:28:45.424Z,23.75
2022-11-03T07:29:45.356Z,23.72
2022-11-03T07:30:45.353Z,23.72
2022-11-03T07:31:45.349Z,23.73
2022-11-03T07:32:45.323Z,23.73
2022-11-03T07:33:45.299Z,23.70
2022-11-03T07:34:45.345Z,23.72
2022-11-03T07:36:13.740Z,23.72
2022-11-03T07:36:48.920Z,23.72
2022-11-03T07:37:46.248Z,23.72
2022-11-03T07:38:45.282Z,23.70
2022-11-03T07:39:45.211Z,23.72
2022-11-03T07:40:45.247Z,23.73
2022-11-03T07:41:45.209Z,23.72
2022-11-03T07:42:45.190Z,23.70
2022-11-03T07:43:45.166Z,23.72
2022-11-03T07:44:45.153Z,23.69
2022-11-03T07:45:45.301Z,23.73
2022-11-03T07:46:45.247Z,23.72
2022-11-03T07:47:45.096Z,23.72
2022-11-03T07:48:45.088Z,23.72
2022-11-03T07:49:45.075Z,23.70
2022-11-03T07:50:45.065Z,23.72
2022-11-03T07:51:45.091Z,23.73
2022-11-03T07:52:45.109Z,23.73
2022-11-03T07:53:45.024Z,23.72
2022-11-03T07:54:45.154Z,23.73
2022-11-03T07:55:45.015Z,23.73
2022-11-03T07:56:44.994Z,23.73
2022-11-03T07:57:44.981Z,23.70
2022-11-03T07:58:46.544Z,23.73
2022-11-03T07:59:44.944Z,23.73
2022-11-03T08:00:44.984Z,23.73
2022-11-03T08:01:45.064Z,23.76
2022-11-03T08:02:44.986Z,23.75
2022-11-03T08:03:44.874Z,23.72
2022-11-03T08:04:44.923Z,23.73
2022-11-03T08:05:44.957Z,23.73
2022-11-03T08:06:44.917Z,23.75
2022-11-03T08:07:44.829Z,23.76
2022-11-03T08:08:44.906Z,23.76
2022-11-03T08:09:44.824Z,23.75
2022-11-03T08:10:44.847Z,23.75
2022-11-03T08:11:44.830Z,23.73
2022-11-03T08:12:44.822Z,23.78
2022-11-03T08:13:44.814Z,23.78
2022-11-03T08:14:44.812Z,23.79
2022-11-03T08:15:44.936Z,23.76
2022-11-03T08:16:44.848Z,23.75
2022-11-03T08:17:44.701Z,23.76
2022-11-03T08:18:44.877Z,23.75
2022-11-03T08:19:44.751Z,23.79
2022-11-03T08:20:44.684Z,23.73
2022-11-03T08:21:44.875Z,23.75
2022-11-03T08:22:59.126Z,23.76
2022-11-03T08:23:47.527Z,23.78
2022-11-03T08:24:44.784Z,23.75
2022-11-03T08:25:44.800Z,23.76
2022-11-03T08:26:44.795Z,23.76
2022-11-03T08:27:44.690Z,23.76
2022-11-03T08:28:44.714Z,23.78
2022-11-03T08:29:44.706Z,23.78
2022-11-03T08:30:44.628Z,23.75
2022-11-03T08:31:44.652Z,23.78
2022-11-03T08:32:44.563Z,23.80
2022-11-03T08:33:44.568Z,23.79
2022-11-03T08:34:44.786Z,23.76
2022-11-03T08:35:44.651Z,23.78
2022-11-03T08:36:44.744Z,23.78
2022-11-03T08:37:44.644Z,23.79
2022-11-03T08:38:45.894Z,23.80
2022-11-03T08:39:44.600Z,23.80
2022-11-03T08:40:44.600Z,23.80
2022-11-03T08:41:44.600Z,23.83
2022-11-03T08:42:44.626Z,23.80
2022-11-03T08:43:44.586Z,23.80
2022-11-03T08:44:44.565Z,23.83
2022-11-03T08:45:45.243Z,23.83
2022-11-03T08:46:44.619Z,23.85
2022-11-03T08:47:44.323Z,23.80
2022-11-03T08:48:44.647Z,23.84
2022-11-03T08:49:44.349Z,23.83
2022-11-03T08:50:44.611Z,23.83
2022-11-03T08:51:44.886Z,23.84
2022-11-03T08:52:44.593Z,23.83
2022-11-03T08:53:44.456Z,23.85
2022-11-03T08:54:44.685Z,23.80
2022-11-03T08:55:44.150Z,23.80
2022-11-03T08:56:44.185Z,23.85
2022-11-03T08:57:44.115Z,23.85
2022-11-03T08:58:44.200Z,23.85
2022-11-03T08:59:44.092Z,23.88
2022-11-03T09:00:44.177Z,23.85
2022-11-03T09:01:44.131Z,23.87
2022-11-03T09:02:44.131Z,23.87
2022-11-03T09:03:44.102Z,23.87
2022-11-03T09:04:44.066Z,23.87
2022-11-03T09:05:44.017Z,23.88
2022-11-03T09:06:44.015Z,23.90
2022-11-03T09:10:44.984Z,23.88
2022-11-03T09:11:43.926Z,23.91
2022-11-03T09:12:43.920Z,23.94
2022-11-03T09:13:43.905Z,23.93
2022-11-03T09:14:43.925Z,23.94
2022-11-03T09:15:43.905Z,23.94
2022-11-03T09:16:43.999Z,23.94
2022-11-03T09:17:45.663Z,23.94
2022-11-03T09:18:43.937Z,23.94
2022-11-03T09:19:43.823Z,23.94
2022-11-03T09:20:43.859Z,23.94
2022-11-03T09:21:43.805Z,23.95
2022-11-03T09:22:43.771Z,23.95
2022-11-03T09:23:43.758Z,23.97
2022-11-03T09:24:43.751Z,23.97
2022-11-03T09:25:43.728Z,23.97
2022-11-03T09:26:43.711Z,23.97
2022-11-03T09:27:43.736Z,23.98
2022-11-03T09:28:43.690Z,23.98
2022-11-03T09:30:11.026Z,23.98
2022-11-03T09:30:45.609Z,23.98
2022-11-03T09:31:43.641Z,24.00
2022-11-03T09:32:43.644Z,23.98
2022-11-03T09:33:43.650Z,24.02
2022-11-03T09:34:43.616Z,24.00
2022-11-03T09:35:43.588Z,24.00
2022-11-03T09:36:43.764Z,24.02
2022-11-03T09:37:43.557Z,24.02
2022-11-03T09:38:43.640Z,24.02
2022-11-03T09:39:43.575Z,24.03
2022-11-03T09:40:43.571Z,24.03
2022-11-03T09:41:57.253Z,24.05
2022-11-03T09:42:44.684Z,24.03
2022-11-03T09:43:43.472Z,24.03
2022-11-03T09:44:43.475Z,24.03
2022-11-03T09:45:43.482Z,24.05
2022-11-03T09:46:43.574Z,24.06
2022-11-03T09:47:43.527Z,24.09
2022-11-03T09:48:43.413Z,24.06
2022-11-03T09:49:43.395Z,24.06
2022-11-03T09:50:43.495Z,24.08
2022-11-03T09:51:43.392Z,24.09
2022-11-03T09:52:47.383Z,24.10
2022-11-03T09:53:44.770Z,24.09
2022-11-03T09:54:43.346Z,24.09
2022-11-03T09:55:43.328Z,24.10
2022-11-03T09:56:43.310Z,24.10
2022-11-03T09:57:43.473Z,24.13
2022-11-03T09:58:43.325Z,24.15
2022-11-03T09:59:43.280Z,24.13
2022-11-03T10:00:43.305Z,24.15
2022-11-03T10:01:43.393Z,24.13
2022-11-03T10:02:43.423Z,24.15
2022-11-03T10:03:43.241Z,24.13
2022-11-03T10:04:43.311Z,24.15
2022-11-03T10:05:43.193Z,24.15
2022-11-03T10:06:43.720Z,24.16
2022-11-03T10:07:43.200Z,24.15
2022-11-03T10:08:43.133Z,24.16
2022-11-03T10:09:43.148Z,24.15
2022-11-03T10:10:43.260Z,24.18
2022-11-03T10:11:43.083Z,24.20
2022-11-03T10:12:43.165Z,24.16
2022-11-03T10:13:43.057Z,24.20
2022-11-03T10:14:43.068Z,24.20
2022-11-03T10:15:43.066Z,24.20
2022-11-03T10:16:43.246Z,24.20
2022-11-03T10:17:43.040Z,24.20
2022-11-03T10:18:43.035Z,24.20
2022-11-03T10:19:42.994Z,24.20
2022-11-03T10:20:42.984Z,24.20
2022-11-03T10:21:42.993Z,24.21
2022-11-03T10:22:42.976Z,24.21
2022-11-03T10:23:42.945Z,24.22
2022-11-03T10:24:42.979Z,24.22
2022-11-03T10:25:42.896Z,24.24
2022-11-03T10:26:43.014Z,24.25
2022-11-03T10:27:42.953Z,24.25
2022-11-03T10:28:44.322Z,24.25
2022-11-03T10:29:45.461Z,24.25
2022-11-03T10:30:58.000Z,24.27
2022-11-03T10:31:43.827Z,24.31
2022-11-03T10:32:42.833Z,24.30
2022-11-03T10:33:42.812Z,24.32
2022-11-03T10:34:43.524Z,24.34
2022-11-03T10:35:42.751Z,24.37
2022-11-03T10:36:45.576Z,24.39
2022-11-03T10:37:43.752Z,24.40
2022-11-03T10:38:42.740Z,24.40
2022-11-03T10:39:42.740Z,24.43
2022-11-03T10:40:47.781Z,24.46
2022-11-03T10:41:43.679Z,24.45
2022-11-03T10:42:42.688Z,24.45
2022-11-03T10:43:42.650Z,24.43
2022-11-03T10:44:42.678Z,24.46
2022-11-03T10:45:42.666Z,24.47
2022-11-03T10:46:50.701Z,24.49
2022-11-03T10:47:43.616Z,24.49
2022-11-03T10:48:43.030Z,24.50
2022-11-03T10:49:43.998Z,24.53
2022-11-03T10:50:43.537Z,24.53
2022-11-03T10:51:42.686Z,24.53
2022-11-03T10:52:42.665Z,24.53
2022-11-03T10:53:42.509Z,24.55
2022-11-03T10:54:42.525Z,24.57
2022-11-03T10:55:42.496Z,24.53
2022-11-03T10:56:42.733Z,24.57
2022-11-03T10:57:42.495Z,24.55
2022-11-03T10:58:42.665Z,24.57
2022-11-03T10:59:42.420Z,24.58
2022-11-03T11:00:42.955Z,24.58
2022-11-03T11:01:42.521Z,24.58
2022-11-03T11:02:42.499Z,24.57
2022-11-03T11:03:42.723Z,24.60
2022-11-03T11:04:42.416Z,24.58
2022-11-03T11:05:42.335Z,24.57
2022-11-03T11:06:42.480Z,24.60
2022-11-03T11:07:42.406Z,24.60
2022-11-03T11:08:42.472Z,24.60
2022-11-03T11:09:42.460Z,24.58
2022-11-03T11:10:42.393Z,24.58
2022-11-03T11:11:42.247Z,24.60
2022-11-03T11:12:42.365Z,24.61
2022-11-03T11:13:42.228Z,24.60
2022-11-03T11:14:42.377Z,24.60
2022-11-03T11:15:42.239Z,24.62
2022-11-03T11:16:42.178Z,24.62
2022-11-03T11:17:42.178Z,24.61
2022-11-03T11:18:42.297Z,24.60
2022-11-03T11:19:42.154Z,24.61
2022-11-03T11:20:42.140Z,24.61
2022-11-03T11:21:42.217Z,24.62
2022-11-03T11:22:42.268Z,24.65
2022-11-03T11:23:42.098Z,24.64
2022-11-03T11:24:42.534Z,24.65
2022-11-03T11:25:42.084Z,24.62
2022-11-03T11:26:42.067Z,24.67
2022-11-03T11:27:42.095Z,24.67
2022-11-03T11:28:42.205Z,24.67
2022-11-03T11:29:42.006Z,24.67
2022-11-03T11:30:42.016Z,24.65
2022-11-03T11:31:41.995Z,24.69
2022-11-03T11:32:43.451Z,24.71
2022-11-03T11:33:41.973Z,24.69
2022-11-03T11:34:41.967Z,24.71
2022-11-03T11:35:41.928Z,24.71
2022-11-03T11:36:42.056Z,24.76
2022-11-03T11:37:41.915Z,24.71
2022-11-03T11:38:42.058Z,24.71
2022-11-03T11:39:41.890Z,24.76
2022-11-03T11:40:41.867Z,24.73
2022-11-03T11:41:41.844Z,24.76
2022-11-03T11:42:41.934Z,24.77
2022-11-03T11:43:41.841Z,24.78
2022-11-03T11:44:41.846Z,24.77
2022-11-03T11:45:41.820Z,24.78
2022-11-03T11:46:41.885Z,24.77
2022-11-03T11:47:41.745Z,24.77
2022-11-03T11:48:42.849Z,24.80
2022-11-03T11:49:41.732Z,24.78
2022-11-03T11:50:41.791Z,24.81
2022-11-03T11:51:41.741Z,24.80
2022-11-03T11:52:41.712Z,24.78
2022-11-03T11:53:41.687Z,24.81
2022-11-03T11:54:41.659Z,24.78
2022-11-03T11:55:41.645Z,24.80
2022-11-03T11:56:41.664Z,24.80
2022-11-03T11:57:41.648Z,24.78
2022-11-03T11:58:42.462Z,24.77
2022-11-03T11:59:41.584Z,24.78
2022-11-03T12:00:43.066Z,24.78
2022-11-03T12:01:41.738Z,24.80
2022-11-03T12:02:41.667Z,24.76
2022-11-03T12:03:41.583Z,24.76
2022-11-03T12:04:41.669Z,24.76
2022-11-03T12:05:41.500Z,24.76
2022-11-03T12:06:41.670Z,24.73
2022-11-03T12:07:41.469Z,24.76
2022-11-03T12:08:41.641Z,24.71
2022-11-03T12:09:41.645Z,24.73
2022-11-03T12:10:41.496Z,24.69
2022-11-03T12:11:45.695Z,24.71
2022-11-03T12:12:42.474Z,24.69
2022-11-03T12:13:41.426Z,24.69
2022-11-03T12:14:41.421Z,24.73
2022-11-03T12:15:41.416Z,24.69
2022-11-03T12:16:41.393Z,24.69
2022-11-03T12:17:41.328Z,24.67
2022-11-03T12:18:46.095Z,24.67
2022-11-03T12:19:42.324Z,24.68
2022-11-03T12:20:41.417Z,24.68
2022-11-03T12:21:41.291Z,24.67
2022-11-03T12:22:41.387Z,24.68
2022-11-03T12:23:41.257Z,24.67
2022-11-03T12:24:41.370Z,24.67
2022-11-03T12:25:41.222Z,24.67
2022-11-03T12:26:41.281Z,24.67
2022-11-03T12:27:41.246Z,24.67
2022-11-03T12:28:41.203Z,24.65
2022-11-03T12:29:41.177Z,24.67
2022-11-03T12:30:41.231Z,24.67
2022-11-03T12:31:41.202Z,24.65
2022-11-03T12:32:41.290Z,24.62
2022-11-03T12:33:41.165Z,24.64
2022-11-03T12:34:41.135Z,24.65
2022-11-03T12:35:41.083Z,24.61
2022-11-03T12:36:41.228Z,24.64
2022-11-03T12:37:41.079Z,24.62
2022-11-03T12:38:41.207Z,24.65
2022-11-03T12:39:41.164Z,24.62
2022-11-03T12:40:41.077Z,24.64
2022-11-03T12:41:41.037Z,24.64
2022-11-03T12:42:41.259Z,24.61
2022-11-03T12:43:41.010Z,24.62
2022-11-03T12:44:43.792Z,24.60
2022-11-03T12:45:40.982Z,24.62
2022-11-03T12:46:41.233Z,24.64
2022-11-03T12:47:40.929Z,24.62
2022-11-03T12:48:41.163Z,24.62
2022-11-03T12:49:40.901Z,24.61
2022-11-03T12:50:41.718Z,24.61
2022-11-03T12:51:40.896Z,24.62
2022-11-03T12:52:41.057Z,24.60
2022-11-03T12:53:40.849Z,24.62
2022-11-03T12:54:41.105Z,24.61
2022-11-03T12:55:43.787Z,24.61
2022-11-03T12:56:40.928Z,24.61